Time;durP1;ratioP1;P1;durP2;ratioP2;P2;SDS_P1;SDS_P2;PMS_P1;PMS_P2;Temp;Humidity;BMP_temperature;BMP_pressure;BME280_temperature;BME280_humidity;BME280_pressure;Samples;Min_cycle;Max_cycle;Signal;HPM_P1;HPM_P2
2023/01/08 00:02:08;;;;;;;170.02;93.93;;;5.20;99.90;;;;;;5114338;28;20266;-82
2023/01/08 00:04:34;;;;;;;161.07;87.27;;;5.10;99.90;;;;;;5115885;28;20211;-81
2023/01/08 00:06:59;;;;;;;158.50;88.57;;;5.10;99.90;;;;;;5114189;28;20383;-82
2023/01/08 00:09:25;;;;;;;160.40;88.57;;;5.10;99.90;;;;;;5114337;28;20432;-82
2023/01/08 00:11:51;;;;;;;172.37;93.23;;;5.00;99.90;;;;;;5115410;28;20249;-82
2023/01/08 00:14:16;;;;;;;155.97;90.37;;;5.00;99.90;;;;;;5115617;28;20176;-82
2023/01/08 00:16:42;;;;;;;150.70;91.07;;;5.00;99.90;;;;;;5114104;28;20206;-81
2023/01/08 00:19:09;;;;;;;161.70;91.00;;;4.90;99.90;;;;;;5115186;28;20195;-82
2023/01/08 00:21:35;;;;;;;168.13;89.80;;;4.80;99.90;;;;;;5113930;28;20179;-81
2023/01/08 00:24:01;;;;;;;162.23;90.97;;;4.80;99.90;;;;;;5114033;28;20191;-82
2023/01/08 00:26:26;;;;;;;146.53;86.90;;;4.80;99.90;;;;;;5113910;28;20180;-81
2023/01/08 00:28:52;;;;;;;154.27;93.87;;;4.70;99.90;;;;;;5113774;28;20443;-82
2023/01/08 00:31:18;;;;;;;154.93;92.80;;;4.70;99.90;;;;;;5115097;28;20171;-81
2023/01/08 00:33:43;;;;;;;152.40;93.20;;;4.70;99.90;;;;;;5113635;28;20440;-82
2023/01/08 00:36:17;;;;;;;145.40;90.77;;;4.70;99.90;;;;;;5113985;28;20187;-81
2023/01/08 00:38:44;;;;;;;146.45;86.72;;;4.80;99.90;;;;;;5113584;28;20215;-82
2023/01/08 00:41:12;;;;;;;149.02;93.43;;;4.90;99.90;;;;;;5114938;28;20172;-81
2023/01/08 00:43:37;;;;;;;144.30;91.15;;;4.90;99.90;;;;;;5114892;28;20649;-82
2023/01/08 00:46:03;;;;;;;155.53;95.33;;;4.90;99.90;;;;;;5115042;28;20179;-82
2023/01/08 00:48:30;;;;;;;144.53;86.80;;;4.90;99.90;;;;;;5113429;28;20648;-82
2023/01/08 00:50:56;;;;;;;148.63;90.05;;;5.00;99.90;;;;;;5113405;28;20412;-82
2023/01/08 00:53:22;;;;;;;144.20;84.88;;;5.00;99.90;;;;;;5113365;28;20198;-82
2023/01/08 00:55:48;;;;;;;140.73;86.63;;;4.90;99.90;;;;;;5113420;28;20235;-82
2023/01/08 00:58:14;;;;;;;140.70;83.13;;;4.90;99.90;;;;;;5114431;28;20795;-82
2023/01/08 01:00:40;;;;;;;133.50;82.53;;;4.90;99.90;;;;;;5114484;28;20176;-80
2023/01/08 01:03:06;;;;;;;132.67;82.50;;;4.90;99.90;;;;;;5114590;28;20192;-82
2023/01/08 01:05:31;;;;;;;136.30;84.37;;;4.90;99.90;;;;;;5113206;28;20188;-81
2023/01/08 01:07:57;;;;;;;146.77;85.60;;;4.90;99.90;;;;;;5114420;28;20431;-82
2023/01/08 01:10:23;;;;;;;148.03;87.17;;;4.90;99.90;;;;;;5113198;28;20190;-82
2023/01/08 01:12:49;;;;;;;179.77;97.07;;;4.90;99.90;;;;;;5113641;28;20464;-82
2023/01/08 01:15:17;;;;;;;181.53;106.77;;;4.80;99.90;;;;;;5114305;28;20532;-82
2023/01/08 01:17:44;;;;;;;154.02;91.85;;;4.70;99.90;;;;;;5114546;28;20483;-82
2023/01/08 01:20:13;;;;;;;149.90;91.00;;;4.70;99.90;;;;;;5115063;28;20251;-82
2023/01/08 01:22:39;;;;;;;158.98;98.55;;;4.60;99.90;;;;;;5112904;28;20227;-82
2023/01/08 01:25:06;;;;;;;148.82;87.13;;;4.40;99.90;;;;;;5113141;28;20199;-82
2023/01/08 01:27:31;;;;;;;145.25;88.50;;;4.30;99.90;;;;;;5114154;28;20196;-82
2023/01/08 01:29:57;;;;;;;141.50;82.33;;;4.20;99.90;;;;;;5114621;28;20176;-82
2023/01/08 01:32:23;;;;;;;125.57;78.65;;;4.00;99.90;;;;;;5114084;28;20188;-81
2023/01/08 01:34:49;;;;;;;133.43;79.77;;;3.90;99.90;;;;;;5112707;28;20182;-81
2023/01/08 01:37:15;;;;;;;158.77;81.57;;;3.80;99.90;;;;;;5113961;28;20214;-82
2023/01/08 01:39:45;;;;;;;153.25;83.43;;;3.70;99.90;;;;;;5114351;28;20183;-81
2023/01/08 01:45:03;;;;;;;153.52;86.38;;;3.60;99.90;;;;;;5114736;28;20178;-82
2023/01/08 01:47:35;;;;;;;175.35;86.20;;;3.50;99.90;;;;;;5113943;28;20188;-82
2023/01/08 01:50:21;;;;;;;161.38;81.18;;;3.50;99.90;;;;;;5114379;28;20175;-82
2023/01/08 01:53:04;;;;;;;134.70;76.03;;;3.50;99.90;;;;;;5113991;28;20640;-82
2023/01/08 01:55:32;;;;;;;143.65;82.90;;;3.50;99.90;;;;;;5112633;28;20322;-81
2023/01/08 01:58:22;;;;;;;137.52;77.07;;;3.30;99.90;;;;;;5113801;28;20234;-82
2023/01/08 02:00:49;;;;;;;143.93;74.90;;;3.20;99.90;;;;;;5113416;28;20586;-82
2023/01/08 02:03:19;;;;;;;136.90;73.00;;;3.20;99.90;;;;;;5112478;28;20196;-82
2023/01/08 02:05:48;;;;;;;142.77;74.57;;;3.10;99.90;;;;;;5113846;28;20176;-81
2023/01/08 02:08:28;;;;;;;130.70;71.28;;;3.10;99.90;;;;;;5113722;28;20258;-82
2023/01/08 02:11:04;;;;;;;146.18;76.65;;;3.20;99.90;;;;;;5113851;28;20164;-81
2023/01/08 02:13:35;;;;;;;134.35;76.55;;;3.20;99.90;;;;;;5113739;28;20700;-81
2023/01/08 02:16:11;;;;;;;129.90;73.25;;;3.30;99.90;;;;;;5112518;28;20173;-82
2023/01/08 02:18:47;;;;;;;130.25;73.78;;;3.30;99.90;;;;;;5112392;28;20222;-82
2023/01/08 02:21:31;;;;;;;134.50;76.38;;;3.30;99.90;;;;;;5113805;28;20187;-82
2023/01/08 02:24:04;;;;;;;138.00;75.13;;;3.40;99.90;;;;;;5116794;28;20241;-82
2023/01/08 02:26:36;;;;;;;146.85;81.03;;;3.30;99.90;;;;;;5116318;28;20172;-82
2023/01/08 02:29:22;;;;;;;146.30;80.25;;;3.30;99.90;;;;;;5116279;28;20196;-82
2023/01/08 02:31:48;;;;;;;138.93;80.05;;;3.40;99.90;;;;;;5116122;28;20183;-82
2023/01/08 02:34:14;;;;;;;130.63;79.70;;;3.40;99.90;;;;;;5117485;28;20191;-82
2023/01/08 02:36:43;;;;;;;160.80;83.07;;;3.40;99.90;;;;;;5116049;28;20543;-82
2023/01/08 02:39:37;;;;;;;141.55;79.07;;;3.40;99.90;;;;;;5117449;28;20699;-82
2023/01/08 02:42:16;;;;;;;135.80;79.53;;;3.40;99.90;;;;;;5117220;28;20259;-82
2023/01/08 02:44:57;;;;;;;128.13;74.55;;;3.30;99.90;;;;;;5117280;28;20570;-82
2023/01/08 02:47:33;;;;;;;125.85;74.82;;;3.30;99.90;;;;;;5115792;28;20214;-82
2023/01/08 02:50:09;;;;;;;125.40;71.53;;;3.20;99.90;;;;;;5116056;28;20532;-82
2023/01/08 02:52:41;;;;;;;132.95;78.57;;;3.10;99.90;;;;;;5115711;28;20671;-82
2023/01/08 02:55:09;;;;;;;132.77;71.07;;;3.00;99.90;;;;;;5116929;28;20215;-82
2023/01/08 02:57:35;;;;;;;146.40;79.97;;;2.90;99.90;;;;;;5116748;28;20223;-82
2023/01/08 03:00:00;;;;;;;138.87;77.77;;;2.90;99.90;;;;;;5117274;28;20278;-82
2023/01/08 03:02:30;;;;;;;140.33;76.30;;;2.90;99.90;;;;;;5116817;28;20481;-82
2023/01/08 03:05:02;;;;;;;137.95;79.13;;;2.90;99.90;;;;;;5115647;28;20211;-82
2023/01/08 03:07:28;;;;;;;144.93;77.88;;;2.90;99.90;;;;;;5116744;28;20257;-82
2023/01/08 03:09:54;;;;;;;144.00;76.40;;;2.90;99.90;;;;;;5117153;28;20176;-82
2023/01/08 03:12:28;;;;;;;143.35;78.32;;;2.90;99.90;;;;;;5115288;28;20204;-82
2023/01/08 03:14:59;;;;;;;140.15;75.97;;;2.80;99.90;;;;;;5117095;28;20211;-82
2023/01/08 03:17:36;;;;;;;144.00;80.55;;;2.80;99.90;;;;;;5116466;28;20234;-82
2023/01/08 03:20:09;;;;;;;145.43;83.85;;;2.80;99.90;;;;;;5117004;28;20168;-82
2023/01/08 03:22:39;;;;;;;158.68;85.28;;;2.80;99.90;;;;;;5116298;28;20195;-82
2023/01/08 03:25:06;;;;;;;153.18;81.97;;;2.80;99.90;;;;;;5116995;28;20160;-82
2023/01/08 03:27:36;;;;;;;178.43;86.82;;;2.70;99.90;;;;;;5116309;28;20699;-82
2023/01/08 03:30:04;;;;;;;159.15;86.20;;;2.70;99.90;;;;;;5116790;28;20542;-82
2023/01/08 03:32:31;;;;;;;162.25;88.43;;;2.70;99.90;;;;;;5114848;28;20211;-82
2023/01/08 03:34:59;;;;;;;159.40;88.35;;;2.70;99.90;;;;;;5114193;28;20616;-82
2023/01/08 03:37:31;;;;;;;138.68;81.05;;;2.70;99.90;;;;;;5115983;28;20219;-82
2023/01/08 03:40:08;;;;;;;143.07;81.75;;;2.70;99.90;;;;;;5114955;28;20644;-82
2023/01/08 03:42:34;;;;;;;151.70;79.70;;;2.50;99.90;;;;;;5115980;28;20200;-83
2023/01/08 03:45:00;;;;;;;143.10;77.03;;;2.50;99.90;;;;;;5116494;28;20171;-82
2023/01/08 03:47:31;;;;;;;143.52;81.22;;;2.60;99.90;;;;;;5115910;28;20689;-82
2023/01/08 03:50:01;;;;;;;145.85;78.50;;;2.50;99.90;;;;;;5116458;28;20203;-82
2023/01/08 03:52:31;;;;;;;149.57;79.10;;;2.60;99.90;;;;;;5115859;27;20580;-82
2023/01/08 03:54:57;;;;;;;137.63;78.47;;;2.60;99.90;;;;;;5115715;28;20314;-82
2023/01/08 03:57:23;;;;;;;148.57;80.32;;;2.50;99.90;;;;;;5114270;28;20223;-82
2023/01/08 03:59:49;;;;;;;151.00;80.37;;;2.50;99.90;;;;;;5116130;28;20220;-82
2023/01/08 04:02:15;;;;;;;148.73;79.47;;;2.50;99.90;;;;;;5115577;28;20493;-82
2023/01/08 04:04:41;;;;;;;152.55;81.40;;;2.50;99.90;;;;;;5115887;28;20522;-82
2023/01/08 04:07:09;;;;;;;165.87;82.60;;;2.50;99.90;;;;;;5115611;28;20180;-82
2023/01/08 04:09:35;;;;;;;153.45;84.40;;;2.50;99.90;;;;;;5114155;28;20507;-82
2023/01/08 04:12:01;;;;;;;141.17;77.97;;;2.50;99.90;;;;;;5115475;28;20712;-82
2023/01/08 04:14:27;;;;;;;166.77;83.77;;;2.40;99.90;;;;;;5115426;28;20176;-82
2023/01/08 04:16:52;;;;;;;141.13;76.80;;;2.50;99.90;;;;;;5115274;28;20180;-82
2023/01/08 04:19:18;;;;;;;168.23;83.23;;;2.50;99.90;;;;;;5115521;28;20416;-82
2023/01/08 04:21:43;;;;;;;160.07;84.77;;;2.50;99.90;;;;;;5114028;28;20183;-81
2023/01/08 04:24:11;;;;;;;151.57;80.63;;;2.50;99.90;;;;;;5115432;28;20184;-82
2023/01/08 04:26:37;;;;;;;156.30;80.43;;;2.50;99.90;;;;;;5113928;28;20191;-82
2023/01/08 04:29:04;;;;;;;147.87;82.97;;;2.50;99.90;;;;;;5113945;28;20203;-82
2023/01/08 04:31:30;;;;;;;162.40;85.28;;;2.50;99.90;;;;;;5115109;28;20901;-82
2023/01/08 04:33:56;;;;;;;146.85;83.57;;;2.60;99.90;;;;;;5113801;28;20223;-82
2023/01/08 04:36:21;;;;;;;152.43;84.77;;;2.60;99.90;;;;;;5113678;28;20218;-81
2023/01/08 04:38:47;;;;;;;166.43;84.50;;;2.60;99.90;;;;;;5113517;28;20269;-82
2023/01/08 04:41:12;;;;;;;153.13;82.37;;;2.60;99.90;;;;;;5114967;28;20193;-80
2023/01/08 04:43:38;;;;;;;151.17;82.00;;;2.60;99.90;;;;;;5114865;28;20237;-82
2023/01/08 04:46:08;;;;;;;156.33;84.20;;;2.60;99.90;;;;;;5114787;28;20180;-82
2023/01/08 04:48:34;;;;;;;157.93;81.60;;;2.60;99.90;;;;;;5114778;28;20198;-82
2023/01/08 04:51:01;;;;;;;151.10;75.40;;;2.60;99.90;;;;;;5114787;28;20668;-81
2023/01/08 04:53:28;;;;;;;145.57;75.85;;;2.60;99.90;;;;;;5113560;28;20222;-82
2023/01/08 04:55:54;;;;;;;133.90;78.20;;;2.60;99.90;;;;;;5114483;28;20228;-82
2023/01/08 04:58:20;;;;;;;143.40;72.70;;;2.80;99.90;;;;;;5113195;28;20223;-82
2023/01/08 05:00:46;;;;;;;149.27;72.70;;;2.80;99.90;;;;;;5114715;28;20168;-81
2023/01/08 05:03:12;;;;;;;140.77;70.07;;;2.80;99.90;;;;;;5114522;27;20337;-82
2023/01/08 05:05:38;;;;;;;140.20;75.07;;;2.80;99.90;;;;;;5113235;28;20437;-82
2023/01/08 05:08:04;;;;;;;136.30;72.87;;;2.80;99.90;;;;;;5113117;28;20585;-82
2023/01/08 05:10:29;;;;;;;124.10;64.40;;;2.90;99.90;;;;;;5114921;28;20443;-81
2023/01/08 05:12:59;;;;;;;118.23;62.60;;;3.00;99.90;;;;;;5114383;28;20286;-82
2023/01/08 05:15:25;;;;;;;117.07;64.40;;;3.10;99.90;;;;;;5114851;28;20187;-82
2023/01/08 05:18:02;;;;;;;108.95;62.20;;;3.10;99.90;;;;;;5114201;28;20226;-82
2023/01/08 05:20:28;;;;;;;110.25;61.20;;;3.00;99.90;;;;;;5114760;28;20175;-82
2023/01/08 05:22:53;;;;;;;114.83;58.50;;;3.00;99.90;;;;;;5114191;28;20841;-82
2023/01/08 05:25:19;;;;;;;95.10;54.10;;;3.00;99.90;;;;;;5113169;28;20432;-83
2023/01/08 05:27:45;;;;;;;91.97;52.77;;;3.10;99.90;;;;;;5114237;28;20202;-82
2023/01/08 05:30:12;;;;;;;88.03;52.50;;;3.10;99.90;;;;;;5113141;28;20263;-82
2023/01/08 05:32:37;;;;;;;85.15;52.03;;;3.20;99.90;;;;;;5112898;28;20312;-82
2023/01/08 05:35:04;;;;;;;81.87;51.27;;;3.20;99.90;;;;;;5114616;28;20206;-82
2023/01/08 05:37:30;;;;;;;81.28;51.72;;;3.30;99.90;;;;;;5112683;28;20590;-82
2023/01/08 05:39:55;;;;;;;80.70;50.72;;;3.30;99.90;;;;;;5114472;28;20175;-82
2023/01/08 05:42:21;;;;;;;93.37;55.77;;;3.30;99.90;;;;;;5114065;28;20526;-82
2023/01/08 05:44:46;;;;;;;89.87;53.27;;;3.30;99.90;;;;;;5114372;28;20180;-82
2023/01/08 05:47:12;;;;;;;78.17;51.40;;;3.40;99.90;;;;;;5112911;28;20590;-82
2023/01/08 05:49:38;;;;;;;79.10;48.47;;;3.40;99.90;;;;;;5114280;28;20168;-82
2023/01/08 05:52:04;;;;;;;87.93;50.37;;;3.30;99.90;;;;;;5113986;28;20179;-82
2023/01/08 05:54:29;;;;;;;83.33;51.90;;;3.30;99.90;;;;;;5112422;28;20623;-82
2023/01/08 05:56:55;;;;;;;82.93;50.20;;;3.30;99.90;;;;;;5113868;28;20429;-82
2023/01/08 05:59:21;;;;;;;81.10;49.43;;;3.40;99.90;;;;;;5116716;28;20270;-82
2023/01/08 06:01:46;;;;;;;79.90;48.97;;;3.40;99.90;;;;;;5116797;28;20186;-82
2023/01/08 06:04:12;;;;;;;83.67;50.40;;;3.50;99.90;;;;;;5117825;28;20192;-82
2023/01/08 06:06:38;;;;;;;81.70;50.50;;;3.60;99.90;;;;;;5117917;28;20168;-82
2023/01/08 06:09:03;;;;;;;78.33;50.70;;;3.60;99.90;;;;;;5116717;28;20196;-82
2023/01/08 06:11:29;;;;;;;79.10;50.70;;;3.60;99.90;;;;;;5117733;28;20391;-82
2023/01/08 06:13:55;;;;;;;80.10;52.57;;;3.60;99.90;;;;;;5116589;28;20277;-83
2023/01/08 06:16:21;;;;;;;81.90;51.17;;;3.60;99.90;;;;;;5117777;28;20366;-82
2023/01/08 06:18:46;;;;;;;92.53;55.90;;;3.60;99.90;;;;;;5116198;28;20571;-82
2023/01/08 06:21:12;;;;;;;84.50;51.83;;;3.60;99.90;;;;;;5116403;28;20431;-82
2023/01/08 06:23:39;;;;;;;76.80;48.60;;;3.50;99.90;;;;;;5117600;28;20199;-82
2023/01/08 06:26:05;;;;;;;90.00;52.47;;;3.50;99.90;;;;;;5117574;28;20876;-82
2023/01/08 06:28:31;;;;;;;80.17;50.90;;;3.40;99.90;;;;;;5117382;28;20231;-83
2023/01/08 06:30:58;;;;;;;81.65;50.40;;;3.50;99.90;;;;;;5116100;28;20462;-82
2023/01/08 06:33:24;;;;;;;72.63;48.75;;;3.40;99.90;;;;;;5117312;28;20196;-82
2023/01/08 06:35:50;;;;;;;83.90;47.97;;;3.30;99.90;;;;;;5117544;28;20221;-83
2023/01/08 06:38:18;;;;;;;78.67;49.40;;;3.30;99.90;;;;;;5117172;28;20211;-82
2023/01/08 06:40:45;;;;;;;76.15;49.20;;;3.20;99.90;;;;;;5116329;28;20361;-82
2023/01/08 06:43:11;;;;;;;82.18;50.22;;;3.20;99.90;;;;;;5117057;28;20192;-82
2023/01/08 06:45:37;;;;;;;88.50;51.80;;;3.20;99.90;;;;;;5117134;28;20179;-82
2023/01/08 06:48:04;;;;;;;89.00;52.00;;;3.20;99.90;;;;;;5115781;28;20402;-82
2023/01/08 06:50:32;;;;;;;89.28;50.60;;;3.20;99.90;;;;;;5117499;28;20416;-82
2023/01/08 06:52:57;;;;;;;83.28;48.40;;;3.20;99.90;;;;;;5115706;28;20605;-82
2023/01/08 06:55:24;;;;;;;78.47;48.80;;;3.20;99.90;;;;;;5116883;28;20252;-82
2023/01/08 06:57:57;;;;;;;88.90;54.58;;;3.20;99.90;;;;;;5116883;28;20684;-82
2023/01/08 07:00:25;;;;;;;82.43;49.13;;;3.20;99.90;;;;;;5117428;28;20171;-82
2023/01/08 07:02:51;;;;;;;79.32;47.13;;;3.30;99.90;;;;;;5116805;28;20349;-82
2023/01/08 07:05:17;;;;;;;81.25;49.33;;;3.20;99.90;;;;;;5115749;28;20620;-82
2023/01/08 07:07:43;;;;;;;82.15;45.20;;;3.20;99.90;;;;;;5116725;28;20192;-82
2023/01/08 07:10:09;;;;;;;84.57;53.53;;;3.20;99.90;;;;;;5115350;28;20187;-81
2023/01/08 07:12:34;;;;;;;90.73;54.30;;;3.20;99.90;;;;;;5116560;28;20668;-82
2023/01/08 07:15:01;;;;;;;87.93;52.50;;;3.20;99.90;;;;;;5116960;28;20612;-82
2023/01/08 07:17:26;;;;;;;88.65;49.60;;;3.10;99.90;;;;;;5115084;28;20211;-82
2023/01/08 07:19:52;;;;;;;78.60;48.50;;;3.20;99.90;;;;;;5115486;28;20180;-82
2023/01/08 07:22:19;;;;;;;80.90;47.17;;;3.20;99.90;;;;;;5115076;28;20206;-82
2023/01/08 07:24:44;;;;;;;81.43;46.72;;;3.20;99.90;;;;;;5115270;28;20172;-82
2023/01/08 07:27:10;;;;;;;84.03;46.63;;;3.20;99.90;;;;;;5115113;28;20300;-82
2023/01/08 07:29:36;;;;;;;78.07;44.67;;;3.20;99.90;;;;;;5115221;28;20818;-82
2023/01/08 07:32:02;;;;;;;70.27;44.77;;;3.20;99.90;;;;;;5114925;28;20180;-82
2023/01/08 07:34:28;;;;;;;74.38;46.65;;;3.10;99.90;;;;;;5116429;28;20175;-82
2023/01/08 07:36:53;;;;;;;85.23;47.10;;;3.10;99.90;;;;;;5116166;28;20184;-82
2023/01/08 07:39:19;;;;;;;77.63;46.10;;;3.10;99.90;;;;;;5116354;28;20180;-82
2023/01/08 07:41:45;;;;;;;77.90;46.90;;;3.10;99.90;;;;;;5116086;28;20255;-81
2023/01/08 07:44:11;;;;;;;90.53;49.10;;;3.10;99.90;;;;;;5116206;28;20440;-82
2023/01/08 07:46:36;;;;;;;80.22;45.00;;;3.10;99.90;;;;;;5114636;28;20214;-81
2023/01/08 07:49:03;;;;;;;74.90;44.90;;;3.10;99.90;;;;;;5114653;28;20199;-82
2023/01/08 07:51:29;;;;;;;73.25;44.25;;;3.00;99.90;;;;;;5114599;28;20210;-82
2023/01/08 07:53:55;;;;;;;74.07;43.90;;;2.90;99.90;;;;;;5114394;28;20196;-82
2023/01/08 07:56:21;;;;;;;90.60;45.38;;;3.00;99.90;;;;;;5114523;28;20180;-82
2023/01/08 07:58:47;;;;;;;67.22;40.17;;;3.10;99.90;;;;;;5114382;28;20557;-82
2023/01/08 08:01:13;;;;;;;75.67;44.97;;;3.10;99.90;;;;;;5115749;28;20225;-82
2023/01/08 08:03:39;;;;;;;78.05;45.08;;;3.10;99.90;;;;;;5115652;28;20249;-82
2023/01/08 08:06:05;;;;;;;73.53;42.33;;;3.00;99.90;;;;;;5115705;28;20211;-81
2023/01/08 08:08:31;;;;;;;76.50;41.60;;;3.10;99.90;;;;;;5115587;28;20668;-82
2023/01/08 08:10:57;;;;;;;78.97;43.58;;;3.10;99.90;;;;;;5114263;28;20184;-83
2023/01/08 08:13:22;;;;;;;71.60;40.20;;;3.10;99.90;;;;;;5115427;28;20202;-82
2023/01/08 08:15:48;;;;;;;79.50;43.03;;;3.10;99.90;;;;;;5115664;28;20179;-81
2023/01/08 08:18:14;;;;;;;92.43;45.73;;;3.10;99.90;;;;;;5115177;28;20219;-82
2023/01/08 08:20:39;;;;;;;87.83;44.17;;;3.10;99.90;;;;;;5113897;28;20187;-82
2023/01/08 08:23:14;;;;;;;73.13;41.07;;;3.20;99.90;;;;;;5115221;28;20192;-82
2023/01/08 08:25:41;;;;;;;87.20;46.15;;;3.30;99.90;;;;;;5113912;28;20262;-82
2023/01/08 08:28:08;;;;;;;86.38;48.53;;;3.30;99.90;;;;;;5113860;28;20192;-82
2023/01/08 08:30:34;;;;;;;102.15;52.40;;;3.30;99.90;;;;;;5115077;28;20207;-82
2023/01/08 08:33:02;;;;;;;84.05;47.47;;;3.40;99.90;;;;;;5115006;28;20555;-82
2023/01/08 08:35:29;;;;;;;88.47;45.38;;;3.40;99.90;;;;;;5115454;28;20255;-81
2023/01/08 08:37:56;;;;;;;87.68;49.00;;;3.50;99.90;;;;;;5114776;28;20288;-82
2023/01/08 08:40:23;;;;;;;88.75;49.63;;;3.60;99.90;;;;;;5115432;28;20672;-82
2023/01/08 08:42:53;;;;;;;98.20;53.15;;;3.70;99.90;;;;;;5113519;28;20658;-83
2023/01/08 08:45:19;;;;;;;110.53;51.83;;;3.80;99.90;;;;;;5115395;28;20167;-82
2023/01/08 08:47:44;;;;;;;95.67;51.57;;;4.00;99.90;;;;;;5113554;28;20593;-82
2023/01/08 08:50:10;;;;;;;88.37;48.87;;;4.20;99.90;;;;;;5113460;28;20633;-82
2023/01/08 08:52:36;;;;;;;94.37;49.40;;;4.20;99.90;;;;;;5114642;28;20203;-82
2023/01/08 08:55:02;;;;;;;87.67;47.17;;;4.40;99.90;;;;;;5114392;28;20219;-83
2023/01/08 08:57:27;;;;;;;96.97;52.77;;;4.60;99.90;;;;;;5113241;28;20431;-83
2023/01/08 08:59:53;;;;;;;109.50;52.57;;;4.70;99.90;;;;;;5112409;28;20184;-83
2023/01/08 09:02:20;;;;;;;114.88;58.15;;;4.90;99.90;;;;;;5113202;28;20425;-83
2023/01/08 09:04:46;;;;;;;81.73;43.70;;;5.10;99.90;;;;;;5111979;28;20180;-82
2023/01/08 09:07:11;;;;;;;96.47;54.50;;;5.30;99.90;;;;;;5112067;28;20479;-82
2023/01/08 09:09:37;;;;;;;84.30;48.70;;;5.60;99.90;;;;;;5113410;28;20507;-83
2023/01/08 09:12:04;;;;;;;69.90;43.97;;;6.10;99.90;;;;;;5111522;28;20172;-83
2023/01/08 09:14:29;;;;;;;60.83;38.05;;;6.60;99.90;;;;;;5112507;28;20572;-84
2023/01/08 09:16:55;;;;;;;55.50;39.47;;;7.00;99.90;;;;;;5112126;28;20180;-83
2023/01/08 09:19:21;;;;;;;62.23;40.13;;;7.40;99.90;;;;;;5112449;28;20621;-82
2023/01/08 09:21:49;;;;;;;50.83;36.10;;;7.90;99.90;;;;;;5110922;28;20172;-83
2023/01/08 09:24:15;;;;;;;54.05;33.67;;;8.80;99.90;;;;;;5110787;28;20555;-83
2023/01/08 09:26:41;;;;;;;46.60;33.67;;;9.50;99.90;;;;;;5110996;28;20309;-83
2023/01/08 09:29:07;;;;;;;52.03;36.30;;;9.90;99.90;;;;;;5112176;28;20447;-82
2023/01/08 09:31:34;;;;;;;46.63;30.90;;;10.20;99.90;;;;;;5111738;28;20199;-83
2023/01/08 09:33:59;;;;;;;46.30;32.05;;;10.40;99.90;;;;;;5110511;28;20676;-83
2023/01/08 09:36:25;;;;;;;47.53;34.43;;;11.00;99.90;;;;;;5112893;28;20176;-83
2023/01/08 09:38:50;;;;;;;42.53;33.10;;;11.10;99.90;;;;;;5112662;28;20255;-83
2023/01/08 09:41:28;;;;;;;42.13;33.07;;;11.10;99.90;;;;;;5114129;28;20167;-82
2023/01/08 09:43:57;;;;;;;44.63;30.17;;;11.10;99.90;;;;;;5114041;28;20191;-82
2023/01/08 09:46:26;;;;;;;42.38;32.38;;;11.30;99.90;;;;;;5114070;28;20190;-83
2023/01/08 09:48:56;;;;;;;46.35;32.50;;;11.30;99.90;;;;;;5113952;28;20727;-83
2023/01/08 09:51:26;;;;;;;41.97;30.73;;;11.60;99.90;;;;;;5113850;28;20186;-83
2023/01/08 09:53:56;;;;;;;43.00;29.80;;;11.80;99.90;;;;;;5113879;28;20777;-83
2023/01/08 09:56:22;;;;;;;41.97;30.90;;;11.90;99.90;;;;;;5114016;28;20408;-83
2023/01/08 09:58:57;;;;;;;42.50;31.43;;;11.80;99.90;;;;;;5113896;28;20528;-83
2023/01/08 10:01:27;;;;;;;42.27;30.47;;;12.00;99.90;;;;;;5113895;28;20415;-82
2023/01/08 10:04:16;;;;;;;47.10;33.67;;;12.00;99.90;;;;;;5113859;28;20435;-83
2023/01/08 10:06:55;;;;;;;39.83;32.22;;;11.70;99.90;;;;;;5113876;28;20912;-82
2023/01/08 10:09:26;;;;;;;47.40;34.47;;;11.20;99.90;;;;;;5114027;28;20176;-84
2023/01/08 10:11:54;;;;;;;44.53;33.25;;;11.00;99.90;;;;;;5113744;28;20393;-83
2023/01/08 10:14:30;;;;;;;44.65;33.40;;;10.70;99.90;;;;;;5114049;28;20247;-83
2023/01/08 10:17:00;;;;;;;45.80;33.40;;;10.60;99.90;;;;;;5112523;28;20172;-84
2023/01/08 10:19:26;;;;;;;48.25;34.08;;;10.70;99.90;;;;;;5114038;28;20184;-83
2023/01/08 10:21:52;;;;;;;45.13;31.63;;;10.80;99.90;;;;;;5112398;28;20547;-83
2023/01/08 10:24:33;;;;;;;46.67;33.38;;;10.90;99.90;;;;;;5113925;28;20412;-83
2023/01/08 10:27:07;;;;;;;44.03;31.73;;;10.90;99.90;;;;;;5112383;28;20182;-83
2023/01/08 10:29:33;;;;;;;41.53;31.10;;;11.10;99.90;;;;;;5112453;28;20415;-83
2023/01/08 10:32:08;;;;;;;38.30;31.20;;;11.20;99.90;;;;;;5112403;28;21015;-83
2023/01/08 10:34:48;;;;;;;40.20;30.27;;;11.50;99.90;;;;;;5113933;28;20530;-84
2023/01/08 10:37:30;;;;;;;50.03;34.40;;;11.50;99.90;;;;;;5112205;28;20452;-84
2023/01/08 10:40:07;;;;;;;46.83;31.97;;;11.60;99.90;;;;;;5112492;28;20485;-84
2023/01/08 10:42:35;;;;;;;41.70;33.30;;;11.70;99.90;;;;;;5112405;28;20451;-83
2023/01/08 10:45:10;;;;;;;43.53;33.30;;;11.90;99.90;;;;;;5115336;28;20412;-84
2023/01/08 10:47:37;;;;;;;44.33;34.50;;;11.70;99.90;;;;;;5117126;27;20761;-83
2023/01/08 10:50:11;;;;;;;51.90;37.07;;;11.70;99.90;;;;;;5116057;28;20424;-84
2023/01/08 10:52:37;;;;;;;43.53;32.80;;;11.70;99.90;;;;;;5117013;28;20512;-84
2023/01/08 10:55:31;;;;;;;44.60;33.77;;;11.70;99.90;;;;;;5117171;28;20456;-83
2023/01/08 10:58:03;;;;;;;44.40;32.23;;;11.70;99.90;;;;;;5116945;28;20610;-83
2023/01/08 11:00:34;;;;;;;43.07;31.47;;;11.70;99.90;;;;;;5115841;28;20932;-84
2023/01/08 11:03:27;;;;;;;40.17;31.97;;;11.70;99.90;;;;;;5115576;28;20770;-84
2023/01/08 11:05:53;;;;;;;50.83;34.57;;;11.60;99.90;;;;;;5116937;28;20393;-84
2023/01/08 11:08:20;;;;;;;47.10;35.10;;;11.60;99.90;;;;;;5116714;28;20424;-84
2023/01/08 11:11:00;;;;;;;50.67;36.00;;;11.60;99.90;;;;;;5115486;28;20415;-83
2023/01/08 11:13:27;;;;;;;43.40;35.70;;;11.50;99.90;;;;;;5116646;28;20420;-84
2023/01/08 11:16:11;;;;;;;51.10;37.03;;;11.30;99.90;;;;;;5116638;28;20640;-83
2023/01/08 11:18:47;;;;;;;46.22;35.85;;;11.10;99.90;;;;;;5115218;28;20850;-83
2023/01/08 11:21:22;;;;;;;45.65;35.45;;;10.90;99.90;;;;;;5116632;28;20172;-84
2023/01/08 11:24:21;;;;;;;54.97;38.88;;;10.80;99.90;;;;;;5115198;28;20658;-84
2023/01/08 11:26:55;;;;;;;57.38;40.55;;;10.70;99.90;;;;;;5116434;28;20179;-83
2023/01/08 11:29:28;;;;;;;59.05;42.30;;;10.60;99.90;;;;;;5116678;27;20168;-84
2023/01/08 11:32:17;;;;;;;57.42;39.42;;;10.50;99.90;;;;;;5116323;28;20297;-83
2023/01/08 11:35:16;;;;;;;56.47;43.65;;;10.50;99.90;;;;;;5116355;28;20556;-84
2023/01/08 11:38:00;;;;;;;61.83;44.15;;;10.50;99.90;;;;;;5116100;28;20232;-84
2023/01/08 11:40:32;;;;;;;61.97;45.88;;;10.40;99.90;;;;;;5116763;28;20167;-83
2023/01/08 11:43:00;;;;;;;59.10;43.47;;;10.30;99.90;;;;;;5116252;28;20196;-83
2023/01/08 11:45:39;;;;;;;62.67;44.60;;;10.30;99.90;;;;;;5116703;28;20175;-83
2023/01/08 11:48:13;;;;;;;64.93;44.50;;;10.40;99.90;;;;;;5116206;28;20714;-83
2023/01/08 11:51:16;;;;;;;63.80;47.45;;;10.50;99.90;;;;;;5114738;28;20224;-83
2023/01/08 11:53:58;;;;;;;74.32;50.10;;;10.80;99.90;;;;;;5115714;28;20191;-84
2023/01/08 11:56:44;;;;;;;66.05;46.67;;;11.00;99.90;;;;;;5115140;28;20246;-84
2023/01/08 11:59:35;;;;;;;68.78;48.72;;;11.10;99.90;;;;;;5114412;28;20250;-83
2023/01/08 12:02:25;;;;;;;65.75;46.88;;;11.30;99.90;;;;;;5114518;28;20225;-84
2023/01/08 12:05:02;;;;;;;61.30;47.92;;;11.50;99.90;;;;;;5114635;28;20640;-83
2023/01/08 12:07:54;;;;;;;71.45;50.63;;;11.60;99.90;;;;;;5114612;28;20209;-84
2023/01/08 12:10:28;;;;;;;75.30;52.75;;;11.70;99.90;;;;;;5116164;28;20183;-84
2023/01/08 12:12:53;;;;;;;67.63;49.90;;;11.70;99.90;;;;;;5115428;28;20196;-83
2023/01/08 12:15:42;;;;;;;78.50;52.43;;;11.70;99.90;;;;;;5114324;28;20408;-84
2023/01/08 12:18:20;;;;;;;71.73;50.93;;;11.80;99.90;;;;;;5113936;28;20250;-84
2023/01/08 12:21:12;;;;;;;78.90;55.00;;;11.90;99.90;;;;;;5115394;28;20483;-83
2023/01/08 12:24:03;;;;;;;70.07;54.50;;;12.10;99.90;;;;;;5111210;28;20948;-85
2023/01/08 12:26:50;;;;;;;70.80;52.50;;;12.10;99.90;;;;;;5113970;28;20428;-83
2023/01/08 12:29:41;;;;;;;59.70;37.53;;;12.10;99.90;;;;;;5115436;28;20427;-85
2023/01/08 12:32:21;;;;;;;73.50;54.13;;;12.00;99.90;;;;;;5113930;28;20427;-83
2023/01/08 12:35:08;;;;;;;69.93;52.27;;;12.00;99.90;;;;;;5113782;28;20793;-83
2023/01/08 12:37:55;;;;;;;68.63;48.53;;;12.10;99.90;;;;;;5113594;28;20573;-82
2023/01/08 12:40:31;;;;;;;73.30;49.67;;;12.10;99.90;;;;;;5114888;28;20420;-83
2023/01/08 12:43:01;;;;;;;68.10;51.83;;;12.20;99.90;;;;;;5113664;28;20847;-83
2023/01/08 12:45:42;;;;;;;65.40;48.17;;;12.30;99.90;;;;;;5115312;28;20424;-83
2023/01/08 12:48:19;;;;;;;68.43;47.70;;;12.10;99.90;;;;;;5113476;28;20801;-83